Time;durP1;ratioP1;P1;durP2;ratioP2;P2;SDS_P1;SDS_P2;PMS_P1;PMS_P2;Temp;Humidity;BMP_temperature;BMP_pressure;BME280_temperature;BME280_humidity;BME280_pressure;Samples;Min_cycle;Max_cycle;Signal;HPM_P1;HPM_P2
2022/06/10 00:03:16;;;;;;;21.85;6.28;;;;;;;23.49;37.93;100933.59;5034652;28;20025;-90
2022/06/10 00:05:47;;;;;;;25.95;5.22;;;;;;;23.47;37.87;100933.19;5034520;28;20026;-79
2022/06/10 00:08:17;;;;;;;27.83;6.25;;;;;;;23.38;38.08;100929.22;5016664;28;20064;-83
2022/06/10 00:10:45;;;;;;;;;;;;;;;23.41;37.96;100940.34;5035212;28;20395;-83
2022/06/10 00:13:13;;;;;;;22.13;6.50;;;;;;;23.36;37.86;100937.19;5016841;28;20011;-79
2022/06/10 00:15:39;;;;;;;21.17;5.65;;;;;;;23.35;37.95;100941.13;5034346;28;20052;-79
2022/06/10 00:18:05;;;;;;;20.55;5.10;;;;;;;23.30;38.22;100941.53;5034395;28;20581;-79
2022/06/10 00:20:32;;;;;;;27.25;6.13;;;;;;;23.23;38.30;100937.53;5034595;28;20108;-89
2022/06/10 00:22:59;;;;;;;24.70;6.13;;;;;;;23.11;38.17;100940.69;5034044;28;20022;-79
2022/06/10 00:25:25;;;;;;;24.60;6.15;;;;;;;23.21;38.60;100939.94;5034090;28;20022;-79
2022/06/10 00:27:52;;;;;;;17.25;5.88;;;;;;;23.14;38.55;100939.13;5034017;28;20033;-78
2022/06/10 00:30:22;;;;;;;14.70;5.05;;;;;;;23.19;38.38;100950.66;5033898;28;20032;-78
2022/06/10 00:32:48;;;;;;;26.02;5.57;;;;;;;23.19;38.12;100947.88;5033889;28;20025;-79
2022/06/10 00:35:15;;;;;;;22.70;6.97;;;;;;;23.06;38.67;100946.66;5033700;28;20060;-79
2022/06/10 00:37:41;;;;;;;25.92;6.03;;;;;;;23.06;38.33;100937.50;5033859;28;20112;-90
2022/06/10 00:40:13;;;;;;;24.83;5.97;;;;;;;22.97;38.86;100949.00;5034028;28;20025;-79
2022/06/10 00:42:39;;;;;;;17.38;4.65;;;;;;;22.99;38.52;100943.84;5033901;28;20059;-79
2022/06/10 00:45:06;;;;;;;22.05;6.20;;;;;;;23.01;38.50;100935.88;5033577;28;20049;-79
2022/06/10 00:47:38;;;;;;;22.90;5.93;;;;;;;23.00;38.61;100939.88;5033574;28;20029;-79
2022/06/10 00:50:28;;;;;;;21.98;6.90;;;;;;;22.96;38.73;100939.84;5033706;28;20435;-79
2022/06/10 00:53:00;;;;;;;22.33;6.47;;;;;;;23.00;38.77;100933.50;5033888;28;20480;-80
2022/06/10 00:55:29;;;;;;;23.40;6.25;;;;;;;23.01;38.55;100946.22;5033572;28;20056;-78
2022/06/10 00:58:09;;;;;;;22.58;5.15;;;;;;;22.87;39.21;100935.81;5033673;28;20104;-79
2022/06/10 01:00:37;;;;;;;;;;;;;;;22.79;39.04;100931.38;5033881;28;20104;-79
2022/06/10 01:03:04;;;;;;;19.10;5.32;;;;;;;22.92;38.61;100939.03;5033640;28;19917;-82
2022/06/10 01:05:29;;;;;;;24.85;6.80;;;;;;;22.83;38.74;100941.38;5033306;28;20104;-78
2022/06/10 01:08:10;;;;;;;26.98;6.38;;;;;;;22.85;39.11;100949.31;5033416;28;20185;-79
2022/06/10 01:10:46;;;;;;;20.90;5.43;;;;;;;22.85;39.16;100947.38;5033411;28;20486;-79
2022/06/10 01:13:31;;;;;;;22.00;5.47;;;;;;;22.78;39.02;100946.50;5033593;28;20108;-78
2022/06/10 01:16:30;;;;;;;21.15;5.45;;;;;;;22.74;39.22;100949.25;5033177;28;20396;-79
2022/06/10 01:19:20;;;;;;;22.25;5.55;;;;;;;22.70;39.45;100948.47;4992391;28;20535;-79
2022/06/10 01:22:02;;;;;;;23.35;6.03;;;;;;;22.70;39.38;100945.69;5015711;28;20061;-79
2022/06/10 01:24:54;;;;;;;22.33;5.95;;;;;;;22.63;39.41;100949.22;5033428;28;20140;-78
2022/06/10 01:27:49;;;;;;;23.85;6.70;;;;;;;22.63;39.54;100954.78;5033465;28;20038;-79
2022/06/10 01:30:46;;;;;;;18.48;6.45;;;;;;;22.37;40.22;100952.28;5015267;28;20040;-79
2022/06/10 01:34:04;;;;;;;22.90;6.53;;;;;;;22.36;40.35;100948.66;5032184;28;20067;-92
2022/06/10 01:36:47;;;;;;;26.77;5.80;;;;;;;22.32;40.22;100956.19;5028277;28;20042;-78
2022/06/10 01:39:33;;;;;;;30.25;5.90;;;;;;;22.32;40.51;100945.06;5015256;28;20026;-80
2022/06/10 01:42:14;;;;;;;30.27;7.25;;;;;;;22.30;40.85;100953.03;5031892;28;20065;-79
2022/06/10 01:45:07;;;;;;;26.38;6.78;;;;;;;22.26;40.82;100952.19;5033159;28;20022;-78
2022/06/10 01:47:46;;;;;;;24.70;5.60;;;;;;;22.26;41.09;100951.38;5015023;28;20029;-79
2022/06/10 01:50:18;;;;;;;29.13;7.38;;;;;;;22.30;40.81;100952.22;5033046;28;20040;-78
2022/06/10 01:53:34;;;;;;;27.73;6.95;;;;;;;22.27;40.87;100942.63;5014911;28;20455;-79
2022/06/10 01:56:15;;;;;;;25.50;6.50;;;;;;;22.22;41.17;100947.75;4952250;29;20066;-79
2022/06/10 01:58:51;;;;;;;22.63;6.03;;;;;;;22.21;41.23;100948.94;4952836;29;20122;-78
2022/06/10 02:01:22;;;;;;;27.65;7.55;;;;;;;22.22;41.17;100948.59;5003557;28;20618;-78
2022/06/10 02:03:50;;;;;;;28.30;7.22;;;;;;;22.27;41.13;100936.28;5032475;28;20026;-79
2022/06/10 02:06:39;;;;;;;28.08;7.25;;;;;;;22.23;41.27;100935.47;5032451;28;20045;-78
2022/06/10 02:09:12;;;;;;;36.13;7.22;;;;;;;22.10;41.72;100944.13;5030341;28;20072;-79
2022/06/10 02:11:43;;;;;;;25.95;7.07;;;;;;;22.19;41.41;100937.41;5032578;28;20022;-79
2022/06/10 02:14:19;;;;;;;22.45;7.22;;;;;;;22.22;41.55;100929.13;5032935;28;20033;-79
2022/06/10 02:16:48;;;;;;;27.73;6.28;;;;;;;22.17;41.63;100939.81;5032544;28;20025;-79
2022/06/10 02:19:31;;;;;;;34.17;9.97;;;;;;;22.04;41.85;100937.28;5032448;28;20079;-80
2022/06/10 02:22:06;;;;;;;28.02;8.18;;;;;;;22.03;42.08;100944.03;5014359;28;20275;-79
2022/06/10 02:24:40;;;;;;;30.80;6.40;;;;;;;22.11;41.58;100942.13;5032685;28;20026;-78
2022/06/10 02:27:11;;;;;;;29.65;6.25;;;;;;;22.18;41.56;100949.75;5014498;28;20021;-78
2022/06/10 02:29:49;;;;;;;28.17;6.30;;;;;;;22.10;41.49;100944.13;5032597;28;20017;-79
2022/06/10 02:32:15;;;;;;;26.67;7.22;;;;;;;22.16;41.36;100955.69;5032070;28;20030;-92
2022/06/10 02:34:40;;;;;;;23.98;6.68;;;;;;;22.09;41.79;100931.41;5032280;28;20537;-79
2022/06/10 02:37:19;;;;;;;34.22;7.70;;;;;;;21.97;41.98;100926.09;5032502;28;20068;-87
2022/06/10 02:39:56;;;;;;;33.20;7.15;;;;;;;21.85;42.32;100927.22;5032218;28;20033;-79
2022/06/10 02:42:21;;;;;;;29.65;8.00;;;;;;;21.95;41.95;100930.47;5022509;28;20021;-79
2022/06/10 02:45:01;;;;;;;24.88;7.05;;;;;;;21.79;42.62;100916.84;5032985;28;20017;-79
2022/06/10 02:47:42;;;;;;;31.63;8.10;;;;;;;21.82;42.47;100919.63;5036453;28;20077;-89
2022/06/10 02:50:13;;;;;;;35.30;9.38;;;;;;;21.85;42.31;100913.31;5036226;28;20029;-78
2022/06/10 02:52:39;;;;;;;27.33;7.63;;;;;;;21.77;42.53;100910.88;5036301;28;20030;-79
2022/06/10 02:55:12;;;;;;;25.05;6.10;;;;;;;21.80;42.56;100907.31;5036042;28;20108;-79
2022/06/10 03:03:42;;;;;;;24.80;7.20;;;;;;;21.84;42.19;100922.03;5016602;28;20040;-92
2022/06/10 03:06:18;;;;;;;27.10;7.22;;;;;;;21.87;42.17;100915.69;5016172;28;20030;-79
2022/06/10 03:08:53;;;;;;;30.70;6.93;;;;;;;21.85;42.40;100920.84;5015920;28;20128;-79
2022/06/10 03:11:24;;;;;;;33.25;7.30;;;;;;;21.87;42.31;100924.03;5016192;28;20022;-79
2022/06/10 03:13:59;;;;;;;27.20;8.48;;;;;;;21.79;42.45;100923.19;5015828;28;20032;-78
2022/06/10 03:16:50;;;;;;;35.38;9.32;;;;;;;21.80;42.44;100924.78;5022707;28;20104;-78
2022/06/10 03:19:41;;;;;;;24.05;7.22;;;;;;;21.76;42.61;100931.50;5035371;28;20483;-79
2022/06/10 03:22:31;;;;;;;33.08;7.88;;;;;;;21.77;42.53;100938.69;5035931;28;20092;-79
2022/06/10 03:25:16;;;;;;;25.73;7.68;;;;;;;21.71;42.52;100927.09;5035237;28;20040;-79
2022/06/10 03:28:06;;;;;;;28.92;8.02;;;;;;;21.68;42.90;100935.41;5035212;28;20071;-78
2022/06/10 03:30:36;;;;;;;25.63;7.32;;;;;;;21.67;42.89;100939.34;5035058;28;20052;-80
2022/06/10 03:33:11;;;;;;;26.08;6.68;;;;;;;21.73;42.37;100930.28;5035339;28;20506;-78
2022/06/10 03:36:00;;;;;;;31.00;7.75;;;;;;;21.54;43.14;100925.75;5035140;28;20079;-79
2022/06/10 03:38:27;;;;;;;25.17;6.22;;;;;;;21.62;42.80;100934.97;5035422;28;20057;-79
2022/06/10 03:40:57;;;;;;;32.45;7.57;;;;;;;21.63;42.75;100931.00;5035188;28;20098;-79
2022/06/10 03:43:24;;;;;;;28.67;7.53;;;;;;;21.62;42.96;100939.72;5035199;28;20040;-78
2022/06/10 03:45:56;;;;;;;31.02;8.45;;;;;;;21.70;42.78;100941.38;5034874;28;20030;-78
2022/06/10 03:48:23;;;;;;;31.75;6.97;;;;;;;21.63;43.03;100941.31;5035163;28;20472;-79
2022/06/10 03:50:50;;;;;;;35.92;8.55;;;;;;;21.63;43.04;100938.53;5034994;28;20021;-79
2022/06/10 03:53:19;;;;;;;30.48;7.25;;;;;;;21.57;43.07;100950.00;5034940;28;20104;-78
2022/06/10 03:55:45;;;;;;;23.60;7.15;;;;;;;21.62;43.03;100942.50;5034854;28;20036;-79
2022/06/10 03:58:10;;;;;;;32.65;8.30;;;;;;;21.49;43.26;100950.31;5034188;28;20025;-79
2022/06/10 04:00:37;;;;;;;41.58;9.18;;;;;;;21.53;43.15;100938.03;5034872;28;20034;-90
2022/06/10 04:03:03;;;;;;;25.20;7.05;;;;;;;21.55;43.08;100941.25;5017171;28;20044;-84
2022/06/10 04:05:29;;;;;;;21.10;7.03;;;;;;;21.52;43.28;100942.00;5034605;28;20029;-78
2022/06/10 04:07:55;;;;;;;34.00;7.97;;;;;;;21.51;43.16;100939.63;5034740;28;20022;-78
2022/06/10 04:10:25;;;;;;;27.15;7.30;;;;;;;21.49;43.41;100936.44;5034402;28;20059;-78
2022/06/10 04:12:51;;;;;;;31.98;7.97;;;;;;;21.47;43.28;100945.16;5034594;28;20034;-79
2022/06/10 04:15:17;;;;;;;33.75;8.13;;;;;;;21.52;43.31;100939.22;5034360;28;20029;-89
2022/06/10 04:17:49;;;;;;;31.45;8.65;;;;;;;21.42;43.59;100934.38;5034254;28;20049;-79
2022/06/10 04:20:36;;;;;;;30.95;8.07;;;;;;;21.49;43.27;100936.44;5034259;28;20108;-78
2022/06/10 04:23:04;;;;;;;33.38;7.22;;;;;;;21.61;42.96;100938.91;5016285;28;20440;-78
2022/06/10 04:25:31;;;;;;;24.27;6.65;;;;;;;21.46;43.50;100940.78;5034137;28;20108;-91
2022/06/10 04:27:56;;;;;;;27.30;7.18;;;;;;;21.52;43.41;100936.44;5034408;28;20054;-80
2022/06/10 04:30:26;;;;;;;34.65;7.03;;;;;;;21.55;43.21;100941.25;5034268;28;20033;-85
2022/06/10 04:32:53;;;;;;;29.17;7.50;;;;;;;21.60;43.23;100945.66;5016372;28;20026;-79
2022/06/10 04:35:19;;;;;;;33.47;8.50;;;;;;;21.59;43.42;100947.63;5033871;28;20452;-78
2022/06/10 04:37:45;;;;;;;26.23;7.00;;;;;;;21.56;43.16;100945.63;5016401;28;20059;-78
2022/06/10 04:40:17;;;;;;;28.25;7.32;;;;;;;21.34;43.93;100946.59;5016053;28;20022;-78
2022/06/10 04:42:45;;;;;;;28.50;7.53;;;;;;;21.53;43.61;100943.59;5033969;28;20053;-79
2022/06/10 04:45:11;;;;;;;30.25;7.88;;;;;;;21.61;43.46;100938.91;5033998;28;20022;-79
2022/06/10 04:47:37;;;;;;;30.92;7.35;;;;;;;21.75;43.00;100943.78;5016454;28;20610;-91
2022/06/10 04:50:03;;;;;;;25.05;6.68;;;;;;;21.77;43.20;100945.03;5015754;28;20064;-78
2022/06/10 04:52:29;;;;;;;31.88;8.82;;;;;;;21.81;42.99;100945.06;5015419;28;20606;-88
2022/06/10 04:54:54;;;;;;;25.30;7.53;;;;;;;21.87;42.82;100935.97;5016166;28;20063;-78
2022/06/10 04:57:21;;;;;;;29.42;7.43;;;;;;;21.97;42.84;100940.00;5033414;28;20034;-78
2022/06/10 04:59:47;;;;;;;25.80;6.82;;;;;;;21.99;42.84;100946.00;5015882;28;20029;-78
2022/06/10 05:02:13;;;;;;;35.15;7.90;;;;;;;21.93;43.17;100939.19;5015749;28;20656;-79
2022/06/10 05:04:39;;;;;;;19.70;6.20;;;;;;;21.96;42.85;100934.84;5015702;28;20061;-78
2022/06/10 05:07:05;;;;;;;33.72;9.10;;;;;;;22.13;42.62;100939.75;5033324;28;20033;-79
2022/06/10 05:09:30;;;;;;;23.35;6.97;;;;;;;22.06;43.04;100951.59;5032313;28;20034;-79
2022/06/10 05:11:57;;;;;;;27.30;7.35;;;;;;;21.94;43.13;100938.00;5016436;28;20033;-92
2022/06/10 05:14:23;;;;;;;27.45;6.05;;;;;;;22.06;43.06;100939.69;5021730;28;20033;-81
2022/06/10 05:16:49;;;;;;;32.72;8.00;;;;;;;22.13;42.96;100971.16;5020424;28;20068;-93
2022/06/10 05:19:14;;;;;;;22.83;6.22;;;;;;;22.20;42.76;100944.59;5013534;28;20539;-80
2022/06/10 05:21:40;;;;;;;25.83;6.05;;;;;;;22.31;42.40;100948.25;4995569;28;20125;-79
2022/06/10 05:24:06;;;;;;;32.42;7.20;;;;;;;22.33;42.23;100952.22;5013230;28;20037;-79
2022/06/10 05:26:32;;;;;;;23.80;7.40;;;;;;;22.26;42.50;100952.19;5018002;28;20061;-79
2022/06/10 05:29:00;;;;;;;27.00;7.68;;;;;;;22.37;42.44;100946.69;5026313;28;20432;-83
2022/06/10 05:31:26;;;;;;;24.58;7.13;;;;;;;22.19;42.60;100956.91;5034069;28;20029;-91
2022/06/10 05:36:36;;;;;;;22.00;5.47;;;;;;;22.36;42.37;100951.44;5034223;28;20037;-91
2022/06/10 05:39:03;;;;;;;18.83;6.38;;;;;;;22.56;42.22;100951.97;5034427;28;20535;-91
2022/06/10 05:44:13;;;;;;;26.25;6.88;;;;;;;22.86;42.00;100951.75;5034086;28;20169;-93
2022/06/10 05:46:38;;;;;;;24.45;7.13;;;;;;;22.62;42.17;100944.84;5034237;28;20029;-91
2022/06/10 05:49:04;;;;;;;28.52;6.57;;;;;;;22.68;41.96;100950.84;5033714;28;20033;-82
2022/06/10 05:51:30;;;;;;;24.73;6.70;;;;;;;22.80;41.83;100952.47;5033942;28;20029;-91
2022/06/10 05:53:56;;;;;;;22.08;6.07;;;;;;;22.80;41.99;100953.28;5033859;28;20029;-91
2022/06/10 05:56:22;;;;;;;21.15;5.82;;;;;;;22.76;41.99;100951.69;5033806;28;20520;-90
2022/06/10 05:58:47;;;;;;;21.15;7.28;;;;;;;22.87;41.94;100946.97;5033623;28;20044;-91
2022/06/10 06:01:13;;;;;;;26.65;7.70;;;;;;;23.05;41.65;100947.84;5033899;28;20025;-92
2022/06/10 06:03:39;;;;;;;23.65;6.80;;;;;;;23.09;41.68;100954.22;5033888;28;20029;-92
2022/06/10 06:06:04;;;;;;;30.08;6.60;;;;;;;23.31;41.33;100954.28;5033610;28;20079;-92
2022/06/10 06:08:30;;;;;;;25.65;6.75;;;;;;;23.25;41.33;100954.66;5015460;28;20488;-91
2022/06/10 06:10:56;;;;;;;25.70;6.30;;;;;;;23.11;41.36;100949.03;5033924;28;20040;-92
2022/06/10 06:13:21;;;;;;;19.48;6.00;;;;;;;23.15;41.34;100949.88;5033862;28;20439;-92
2022/06/10 06:15:47;;;;;;;25.08;6.70;;;;;;;23.35;40.59;100955.06;5033309;28;20466;-81
2022/06/10 06:18:13;;;;;;;26.63;6.75;;;;;;;23.33;40.49;100952.69;5033185;28;20049;-81
2022/06/10 06:20:39;;;;;;;19.58;5.65;;;;;;;23.37;40.65;100949.94;5035834;28;20060;-91
2022/06/10 06:23:05;;;;;;;21.20;5.97;;;;;;;23.55;40.09;100964.69;5037714;28;20484;-91
2022/06/10 06:25:31;;;;;;;18.20;5.72;;;;;;;23.67;40.25;100953.19;5036759;28;20025;-81
2022/06/10 06:27:58;;;;;;;28.85;7.88;;;;;;;23.90;39.90;100955.59;5036654;28;20053;-84
2022/06/10 06:30:32;;;;;;;20.63;5.68;;;;;;;24.05;39.54;100959.16;5036254;28;20030;-80
2022/06/10 06:33:01;;;;;;;22.27;6.15;;;;;;;23.78;40.17;100958.75;5036953;28;20040;-92
2022/06/10 06:35:27;;;;;;;21.67;6.22;;;;;;;23.80;39.69;100953.56;5039221;28;20116;-87
2022/06/10 06:37:52;;;;;;;22.83;6.05;;;;;;;23.64;40.00;100961.53;5036289;28;20423;-80
2022/06/10 06:40:18;;;;;;;26.48;7.47;;;;;;;23.84;39.59;100959.16;5036233;28;20030;-82
2022/06/10 06:42:47;;;;;;;26.10;5.57;;;;;;;23.70;39.78;100955.16;5036375;28;20064;-85
2022/06/10 06:45:14;;;;;;;25.25;6.30;;;;;;;24.07;39.43;100945.59;5036044;28;20037;-88
2022/06/10 06:47:40;;;;;;;20.83;6.28;;;;;;;23.94;39.45;100952.78;5035967;28;20021;-83
2022/06/10 06:50:07;;;;;;;18.92;6.80;;;;;;;24.08;39.43;100952.78;5018254;28;20032;-80
2022/06/10 06:52:32;;;;;;;21.67;6.03;;;;;;;24.11;39.59;100957.56;5018746;28;20032;-87
2022/06/10 06:54:58;;;;;;;25.20;7.50;;;;;;;24.28;39.31;100951.16;5018503;28;20030;-79
2022/06/10 06:57:25;;;;;;;24.00;6.60;;;;;;;24.50;38.70;100934.41;5036179;28;20036;-80
2022/06/10 06:59:53;;;;;;;24.58;5.85;;;;;;;24.74;38.38;100949.47;5036321;28;20017;-79
2022/06/10 07:02:20;;;;;;;26.60;6.07;;;;;;;24.63;38.52;100950.28;5035925;28;20052;-79
2022/06/10 07:04:46;;;;;;;26.45;5.60;;;;;;;24.81;38.33;100958.63;5034173;28;20022;-88
2022/06/10 07:07:11;;;;;;;22.50;6.15;;;;;;;24.62;38.85;100959.09;5034131;28;20391;-78
2022/06/10 07:09:37;;;;;;;19.00;5.50;;;;;;;24.86;38.13;100961.00;5035773;28;20036;-78
2022/06/10 07:12:03;;;;;;;17.67;5.50;;;;;;;24.76;38.75;100959.03;5035848;28;20026;-80
2022/06/10 07:14:29;;;;;;;23.52;6.47;;;;;;;24.97;38.16;100960.16;5034546;28;20387;-89
2022/06/10 07:16:55;;;;;;;23.98;5.82;;;;;;;25.01;37.96;100972.91;5036218;28;20100;-88
2022/06/10 07:19:22;;;;;;;19.65;5.10;;;;;;;24.95;37.95;100959.78;5036055;28;20029;-80
2022/06/10 07:21:48;;;;;;;18.48;5.70;;;;;;;24.97;37.48;100955.38;5018058;28;20115;-78
2022/06/10 07:24:14;;;;;;;17.38;4.38;;;;;;;25.02;37.70;100959.75;5018538;28;20120;-88
2022/06/10 07:26:40;;;;;;;23.60;5.13;;;;;;;25.30;37.13;100956.03;5018079;28;20121;-80
2022/06/10 07:29:06;;;;;;;19.35;5.70;;;;;;;25.24;37.69;100952.88;5017869;28;20569;-89
2022/06/10 07:31:34;;;;;;;32.08;6.93;;;;;;;25.08;37.78;100964.50;5034306;28;20026;-78
2022/06/10 07:34:00;;;;;;;16.45;4.50;;;;;;;25.08;38.07;100960.94;5035600;28;20484;-89
2022/06/10 07:36:26;;;;;;;20.90;5.05;;;;;;;25.14;37.39;100951.72;5035971;28;20026;-89
2022/06/10 07:38:53;;;;;;;28.15;6.68;;;;;;;25.18;37.55;100951.72;5035526;28;20021;-89
2022/06/10 07:44:03;;;;;;;18.70;5.30;;;;;;;25.45;37.42;100952.72;5034121;28;20036;-80
2022/06/10 07:46:29;;;;;;;19.05;6.22;;;;;;;25.39;37.35;100956.34;5035072;28;20500;-79
2022/06/10 07:48:55;;;;;;;30.40;6.82;;;;;;;25.45;37.43;100972.31;5034876;28;20032;-79
2022/06/10 07:51:20;;;;;;;20.23;5.22;;;;;;;25.43;37.15;100957.94;5035208;28;20021;-80
2022/06/10 07:53:47;;;;;;;25.00;6.15;;;;;;;25.63;36.93;100965.81;5036354;28;20468;-76
2022/06/10 07:56:14;;;;;;;21.00;5.25;;;;;;;25.79;36.68;100968.13;5035228;28;20032;-84
2022/06/10 07:58:41;;;;;;;21.00;5.68;;;;;;;25.90;36.50;100975.22;5035258;28;20144;-79
2022/06/10 08:01:06;;;;;;;17.98;5.50;;;;;;;25.88;36.27;100954.44;5035441;28;20025;-84
2022/06/10 08:03:32;;;;;;;16.70;5.45;;;;;;;26.03;36.22;100964.31;5034920;28;20099;-86
2022/06/10 08:05:59;;;;;;;20.67;5.40;;;;;;;26.18;36.49;100968.56;5035113;28;20140;-77
2022/06/10 08:08:25;;;;;;;16.33;5.97;;;;;;;26.14;36.17;100959.41;5035120;28;20025;-88
2022/06/10 08:10:51;;;;;;;25.90;6.28;;;;;;;26.44;35.29;100953.13;5034470;28;20018;-78
2022/06/10 08:13:17;;;;;;;18.42;5.28;;;;;;;26.36;35.08;100962.00;5033784;28;20026;-76
2022/06/10 08:15:44;;;;;;;19.00;5.18;;;;;;;26.24;35.01;100957.72;5033822;28;20051;-77
2022/06/10 08:18:12;;;;;;;35.55;23.25;;;;;;;26.47;34.80;100955.09;5033795;28;20037;-83
2022/06/10 08:23:25;;;;;;;17.75;5.43;;;;;;;26.62;34.79;100961.34;5027386;28;20090;-79
2022/06/10 08:25:54;;;;;;;22.08;4.90;;;;;;;26.63;34.58;100962.94;5025472;28;20554;-89
2022/06/10 08:28:20;;;;;;;15.52;4.25;;;;;;;26.55;34.54;100964.22;5026241;28;20021;-79
2022/06/10 08:30:46;;;;;;;18.52;5.47;;;;;;;26.89;33.80;100960.63;5018893;28;20049;-87
2022/06/10 08:33:12;;;;;;;14.48;4.32;;;;;;;26.64;34.01;100967.31;5018923;28;20464;-80
2022/06/10 08:35:38;;;;;;;14.85;4.68;;;;;;;26.79;33.72;100974.34;5024754;28;20021;-78
2022/06/10 08:38:07;;;;;;;13.73;3.75;;;;;;;26.73;33.40;100964.03;5020217;28;20033;-79
2022/06/10 08:40:55;;;;;;;14.73;5.03;;;;;;;26.59;33.30;100969.78;5021144;28;20021;-79
2022/06/10 08:43:58;;;;;;;16.55;4.68;;;;;;;26.59;33.53;100975.38;5025887;28;20160;-79
2022/06/10 08:46:45;;;;;;;19.17;4.68;;;;;;;26.73;33.49;100972.44;5021945;28;20080;-79
2022/06/10 08:49:41;;;;;;;17.65;4.45;;;;;;;26.72;33.74;100974.44;5001971;28;20480;-79
2022/06/10 08:52:27;;;;;;;14.63;3.95;;;;;;;26.54;33.62;100960.63;5024416;28;20042;-79
2022/06/10 08:55:11;;;;;;;14.48;4.60;;;;;;;26.36;33.54;100976.78;5019965;28;20049;-79
2022/06/10 08:57:39;;;;;;;14.93;4.75;;;;;;;26.82;33.24;100961.50;5016586;28;20163;-89
2022/06/10 09:00:15;;;;;;;14.55;5.03;;;;;;;26.85;33.05;100957.09;5023078;28;20017;-79
2022/06/10 09:02:55;;;;;;;16.23;4.28;;;;;;;26.99;33.36;100960.50;5021542;28;20034;-89
2022/06/10 09:05:31;;;;;;;17.90;4.47;;;;;;;27.11;33.26;100956.34;5022388;28;20029;-79
2022/06/10 09:08:05;;;;;;;17.55;4.43;;;;;;;27.13;32.80;100962.38;5021903;28;20042;-89
2022/06/10 09:10:54;;;;;;;17.50;4.53;;;;;;;27.26;32.15;100954.16;5004912;28;20404;-78
2022/06/10 09:13:31;;;;;;;15.17;4.63;;;;;;;27.30;32.36;100958.50;5023214;28;20060;-79
2022/06/10 09:16:15;;;;;;;15.27;3.53;;;;;;;27.25;31.73;100953.38;5024752;28;20041;-78
2022/06/10 09:18:40;;;;;;;12.93;4.07;;;;;;;27.25;31.97;100958.19;5018457;28;20488;-78
2022/06/10 09:21:17;;;;;;;14.52;4.38;;;;;;;27.54;31.95;100950.13;5021967;28;20079;-78
2022/06/10 09:23:46;;;;;;;14.93;3.88;;;;;;;28.00;31.53;100943.78;5024375;28;20435;-78
2022/06/10 09:26:30;;;;;;;13.50;4.55;;;;;;;27.51;30.82;100949.00;5024216;28;20392;-78
2022/06/10 09:28:56;;;;;;;14.57;3.88;;;;;;;27.64;30.60;100951.97;5018852;28;20384;-78
2022/06/10 09:31:40;;;;;;;10.45;3.60;;;;;;;27.51;30.20;100943.38;5023151;28;20026;-82
2022/06/10 09:34:44;;;;;;;9.43;3.15;;;;;;;27.36;30.42;100940.00;5033146;28;20451;-79
2022/06/10 09:37:31;;;;;;;12.60;4.50;;;;;;;27.44;30.46;100951.09;5033824;28;20040;-88
2022/06/10 09:43:28;;;;;;;12.40;3.35;;;;;;;27.51;31.22;100942.59;5032051;28;20028;-79
2022/06/10 09:45:59;;;;;;;10.57;2.75;;;;;;;27.58;30.99;100948.06;5032790;28;20555;-80
2022/06/10 09:48:43;;;;;;;14.80;3.28;;;;;;;27.61;30.72;100941.63;5032769;28;20373;-78
2022/06/10 09:51:23;;;;;;;16.10;4.15;;;;;;;27.51;30.18;100936.97;5032991;28;20147;-90
2022/06/10 09:54:02;;;;;;;13.60;3.25;;;;;;;27.78;29.82;100936.94;5027162;28;20060;-78
2022/06/10 09:56:49;;;;;;;13.57;2.95;;;;;;;27.93;29.64;100944.72;5016464;28;20029;-79
2022/06/10 09:59:19;;;;;;;15.23;3.35;;;;;;;27.78;29.93;100948.19;5017522;28;20470;-87
2022/06/10 10:01:44;;;;;;;13.98;4.03;;;;;;;28.09;29.89;100952.44;5016392;28;20077;-78
2022/06/10 10:04:45;;;;;;;13.23;3.85;;;;;;;28.28;30.00;100942.50;4998720;28;20336;-79
2022/06/10 10:07:33;;;;;;;10.23;3.35;;;;;;;28.13;29.43;100941.16;5016345;28;20556;-79
2022/06/10 10:10:17;;;;;;;13.85;2.75;;;;;;;27.78;29.45;100943.34;5032521;28;20098;-78
2022/06/10 10:13:06;;;;;;;17.30;3.75;;;;;;;27.92;29.66;100950.75;5032018;28;20129;-89
2022/06/10 10:16:23;;;;;;;11.30;3.45;;;;;;;27.99;29.81;100953.44;5014598;28;20033;-78
2022/06/10 10:19:22;;;;;;;14.05;3.85;;;;;;;27.73;29.78;100940.22;4971387;28;20197;-77
2022/06/10 10:22:08;;;;;;;16.67;3.55;;;;;;;27.84;29.34;100952.09;5032640;28;20510;-77
2022/06/10 10:24:44;;;;;;;19.00;4.22;;;;;;;27.82;29.83;100952.53;5015213;28;20387;-79
2022/06/10 10:27:27;;;;;;;15.43;3.85;;;;;;;27.76;30.36;100942.22;5032521;28;20419;-77
2022/06/10 10:30:01;;;;;;;13.32;3.10;;;;;;;27.69;30.45;100943.13;5032374;28;20025;-78
2022/06/10 10:32:30;;;;;;;12.52;4.22;;;;;;;27.93;30.21;100941.91;5032066;28;20029;-78
2022/06/10 10:35:03;;;;;;;15.43;3.50;;;;;;;28.17;30.10;100937.06;5032289;28;20024;-77
2022/06/10 10:37:36;;;;;;;11.15;3.53;;;;;;;28.42;30.11;100930.22;5032166;28;20124;-77
2022/06/10 10:40:15;;;;;;;11.05;2.70;;;;;;;28.59;29.92;100922.66;5032121;28;20049;-78
2022/06/10 10:42:43;;;;;;;9.32;3.10;;;;;;;28.60;29.57;100927.84;5012666;28;20034;-78
2022/06/10 10:45:31;;;;;;;14.52;3.45;;;;;;;28.93;29.18;100919.56;4995060;28;20030;-78
2022/06/10 10:48:01;;;;;;;9.18;2.63;;;;;;;29.27;29.04;100919.19;4995084;28;20116;-78
2022/06/10 10:50:28;;;;;;;12.48;3.85;;;;;;;29.10;29.45;100921.19;5015218;28;20432;-79
2022/06/10 10:52:54;;;;;;;10.77;4.07;;;;;;;29.19;28.83;100915.75;5014906;28;20021;-78
2022/06/10 10:55:25;;;;;;;12.85;3.65;;;;;;;29.16;28.86;100916.63;5015206;28;20026;-79
2022/06/10 10:58:00;;;;;;;18.67;4.88;;;;;;;28.94;28.85;100929.56;5016277;28;20037;-76
2022/06/10 11:00:34;;;;;;;16.42;3.22;;;;;;;28.94;29.01;100921.13;5014923;28;20029;-78
2022/06/10 11:03:01;;;;;;;12.40;3.95;;;;;;;28.89;28.75;100922.41;5017269;28;20029;-80
2022/06/10 11:05:37;;;;;;;11.98;3.38;;;;;;;28.68;29.26;100915.22;5016135;28;20021;-79
2022/06/10 11:08:17;;;;;;;14.93;3.50;;;;;;;28.88;28.79;100914.44;5019794;28;20207;-80
2022/06/10 11:10:55;;;;;;;12.48;3.35;;;;;;;28.78;29.04;100918.25;5000156;28;20033;-78
2022/06/10 11:13:34;;;;;;;11.93;3.83;;;;;;;29.06;29.07;100912.03;5019754;28;20021;-83
2022/06/10 11:16:35;;;;;;;10.63;2.93;;;;;;;29.12;29.40;100890.59;5036539;28;20037;-90
2022/06/10 11:19:01;;;;;;;9.15;3.22;;;;;;;28.64;29.21;100906.09;5027895;28;20060;-82
2022/06/10 11:21:27;;;;;;;16.23;3.70;;;;;;;28.45;29.34;100915.31;5002542;28;20021;-79
2022/06/10 11:23:55;;;;;;;10.50;3.10;;;;;;;28.60;29.32;100915.81;5022736;28;20017;-79
2022/06/10 11:26:22;;;;;;;12.13;3.22;;;;;;;28.36;30.41;100915.09;5017593;28;20388;-78
2022/06/10 11:28:59;;;;;;;10.60;3.55;;;;;;;28.89;30.07;100896.31;5035439;28;20479;-79
2022/06/10 11:31:39;;;;;;;12.52;3.33;;;;;;;28.93;30.34;100903.47;5035211;28;20037;-78
2022/06/10 11:34:13;;;;;;;14.40;3.20;;;;;;;28.84;30.11;100903.25;5035306;28;20025;-78
2022/06/10 11:36:51;;;;;;;12.60;3.30;;;;;;;29.25;30.17;100891.50;5035242;28;20535;-80
2022/06/10 11:39:27;;;;;;;18.70;3.92;;;;;;;29.22;29.76;100886.75;5035059;28;20503;-79
2022/06/10 11:42:17;;;;;;;11.93;3.15;;;;;;;29.67;29.99;100883.25;5026145;28;20021;-79
2022/06/10 11:45:23;;;;;;;13.73;3.85;;;;;;;29.84;29.93;100887.63;5033506;28;20400;-78
2022/06/10 11:48:03;;;;;;;8.70;2.65;;;;;;;29.87;29.62;100876.75;5032719;28;20061;-78
2022/06/10 11:50:42;;;;;;;9.75;3.03;;;;;;;29.64;28.92;100889.00;5017076;28;20025;-77
2022/06/10 11:53:32;;;;;;;12.52;3.15;;;;;;;29.80;28.48;100897.44;5035115;28;20322;-77
2022/06/10 12:01:46;;;;;;;22.88;4.22;;;;;;;29.95;28.93;100875.31;5032820;28;20036;-81
2022/06/10 12:04:21;;;;;;;10.55;3.03;;;;;;;30.16;28.90;100885.25;5008685;28;20041;-77
2022/06/10 12:06:54;;;;;;;8.75;2.90;;;;;;;30.01;28.94;100884.81;5022152;28;20034;-78
2022/06/10 12:09:34;;;;;;;13.65;3.58;;;;;;;29.88;27.98;100893.19;5024898;28;20025;-77
2022/06/10 12:12:17;;;;;;;18.02;15.45;;;;;;;29.95;28.08;100886.56;5035097;28;20017;-78